Terminal Aerodrome Forecast
Issued by NWS

Home | Current Version | Previous Version | Text Only | Print | Product List | Glossary On
Versions: 1 2 3 4 5 6 7 8 9 10 11 12 13 14 15 16 17 18 19 20 21
000
FTUS41 KPHI 011700
TAFMIV
TAF
KMIV 011738Z 0118/0218 24007KT P6SM SCT030
      TEMPO 0120/0124 5SM -SHRA
     FM020000 VRB03KT P6SM SCT040 SCT100
     FM020500 VRB02KT 5SM BR SCT100
     FM021400 26006KT P6SM SCT200=

USA.gov is the U.S. government's official web portal to all federal, state and local government web resources and services.